sensor_id;sensor_type;location;lat;lon;timestamp;P1;durP1;ratioP1;P2;durP2;ratioP2
53261;SDS011;39658;51.090;-1.786;2022-10-22T00:01:18;2.57;;;1.27;;
53261;SDS011;39658;51.090;-1.786;2022-10-22T00:03:46;2.00;;;0.70;;
53261;SDS011;39658;51.090;-1.786;2022-10-22T00:06:15;2.83;;;0.50;;
53261;SDS011;39658;51.090;-1.786;2022-10-22T00:08:42;8.93;;;0.52;;
53261;SDS011;39658;51.090;-1.786;2022-10-22T00:11:11;1.48;;;0.75;;
53261;SDS011;39658;51.090;-1.786;2022-10-22T00:13:39;0.00;;;0.00;;
53261;SDS011;39658;51.090;-1.786;2022-10-22T00:16:08;3.03;;;1.75;;
53261;SDS011;39658;51.090;-1.786;2022-10-22T00:18:36;2.67;;;2.35;;
53261;SDS011;39658;51.090;-1.786;2022-10-22T00:21:03;0.20;;;0.10;;
53261;SDS011;39658;51.090;-1.786;2022-10-22T00:23:33;21.38;;;0.60;;
53261;SDS011;39658;51.090;-1.786;2022-10-22T00:26:00;5.85;;;3.05;;
53261;SDS011;39658;51.090;-1.786;2022-10-22T00:28:28;0.98;;;0.30;;
53261;SDS011;39658;51.090;-1.786;2022-10-22T00:30:55;1.13;;;0.40;;
53261;SDS011;39658;51.090;-1.786;2022-10-22T00:33:26;0.43;;;0.25;;
53261;SDS011;39658;51.090;-1.786;2022-10-22T00:35:54;1.65;;;0.40;;
53261;SDS011;39658;51.090;-1.786;2022-10-22T00:38:22;1.15;;;0.50;;
53261;SDS011;39658;51.090;-1.786;2022-10-22T00:40:51;0.20;;;0.10;;
53261;SDS011;39658;51.090;-1.786;2022-10-22T00:43:19;0.00;;;0.00;;
53261;SDS011;39658;51.090;-1.786;2022-10-22T00:45:46;0.00;;;0.00;;
53261;SDS011;39658;51.090;-1.786;2022-10-22T00:48:14;0.10;;;0.08;;
53261;SDS011;39658;51.090;-1.786;2022-10-22T00:50:45;0.15;;;0.05;;
53261;SDS011;39658;51.090;-1.786;2022-10-22T00:53:18;0.00;;;0.00;;
53261;SDS011;39658;51.090;-1.786;2022-10-22T00:55:48;0.25;;;0.13;;
53261;SDS011;39658;51.090;-1.786;2022-10-22T00:58:19;0.00;;;0.00;;
53261;SDS011;39658;51.090;-1.786;2022-10-22T01:00:49;1.92;;;0.68;;
53261;SDS011;39658;51.090;-1.786;2022-10-22T01:03:17;0.00;;;0.00;;
53261;SDS011;39658;51.090;-1.786;2022-10-22T01:05:45;0.10;;;0.03;;
53261;SDS011;39658;51.090;-1.786;2022-10-22T01:08:22;0.22;;;0.10;;
53261;SDS011;39658;51.090;-1.786;2022-10-22T01:10:57;0.63;;;0.35;;
53261;SDS011;39658;51.090;-1.786;2022-10-22T01:13:34;0.00;;;0.00;;
53261;SDS011;39658;51.090;-1.786;2022-10-22T01:16:14;0.00;;;0.00;;
53261;SDS011;39658;51.090;-1.786;2022-10-22T01:18:47;0.52;;;0.52;;
53261;SDS011;39658;51.090;-1.786;2022-10-22T01:21:22;0.00;;;0.00;;
53261;SDS011;39658;51.090;-1.786;2022-10-22T01:24:10;0.00;;;0.00;;
53261;SDS011;39658;51.090;-1.786;2022-10-22T01:26:58;2.83;;;0.70;;
53261;SDS011;39658;51.090;-1.786;2022-10-22T01:29:37;2.28;;;1.45;;
53261;SDS011;39658;51.090;-1.786;2022-10-22T01:32:09;2.03;;;1.15;;
53261;SDS011;39658;51.090;-1.786;2022-10-22T01:34:41;0.00;;;0.00;;
53261;SDS011;39658;51.090;-1.786;2022-10-22T01:37:12;0.55;;;0.30;;
53261;SDS011;39658;51.090;-1.786;2022-10-22T01:39:41;2.15;;;0.28;;
53261;SDS011;39658;51.090;-1.786;2022-10-22T01:42:11;4.57;;;1.08;;
53261;SDS011;39658;51.090;-1.786;2022-10-22T01:44:40;0.43;;;0.10;;
53261;SDS011;39658;51.090;-1.786;2022-10-22T01:47:13;0.95;;;0.80;;
53261;SDS011;39658;51.090;-1.786;2022-10-22T01:55:39;0.15;;;0.10;;
53261;SDS011;39658;51.090;-1.786;2022-10-22T01:58:17;0.85;;;0.57;;
53261;SDS011;39658;51.090;-1.786;2022-10-22T02:00:54;0.80;;;0.20;;
53261;SDS011;39658;51.090;-1.786;2022-10-22T02:03:29;0.40;;;0.25;;
53261;SDS011;39658;51.090;-1.786;2022-10-22T02:06:04;0.32;;;0.15;;
53261;SDS011;39658;51.090;-1.786;2022-10-22T02:08:39;0.00;;;0.00;;
53261;SDS011;39658;51.090;-1.786;2022-10-22T02:11:08;0.90;;;0.57;;
53261;SDS011;39658;51.090;-1.786;2022-10-22T02:13:39;0.52;;;0.22;;
53261;SDS011;39658;51.090;-1.786;2022-10-22T02:16:12;1.10;;;0.68;;
53261;SDS011;39658;51.090;-1.786;2022-10-22T02:18:43;2.67;;;1.05;;
53261;SDS011;39658;51.090;-1.786;2022-10-22T02:21:12;1.77;;;0.30;;
53261;SDS011;39658;51.090;-1.786;2022-10-22T02:23:41;0.00;;;0.00;;
53261;SDS011;39658;51.090;-1.786;2022-10-22T02:26:10;0.60;;;0.20;;
53261;SDS011;39658;51.090;-1.786;2022-10-22T02:28:44;1.70;;;0.55;;
53261;SDS011;39658;51.090;-1.786;2022-10-22T02:31:20;0.00;;;0.00;;
53261;SDS011;39658;51.090;-1.786;2022-10-22T02:33:51;3.30;;;0.45;;
53261;SDS011;39658;51.090;-1.786;2022-10-22T02:36:21;7.10;;;0.98;;
53261;SDS011;39658;51.090;-1.786;2022-10-22T02:38:49;0.52;;;0.17;;
53261;SDS011;39658;51.090;-1.786;2022-10-22T02:41:17;2.33;;;0.60;;
53261;SDS011;39658;51.090;-1.786;2022-10-22T02:43:48;0.30;;;0.22;;
53261;SDS011;39658;51.090;-1.786;2022-10-22T02:46:17;0.17;;;0.10;;
53261;SDS011;39658;51.090;-1.786;2022-10-22T02:48:45;3.20;;;1.85;;
53261;SDS011;39658;51.090;-1.786;2022-10-22T02:51:12;0.45;;;0.30;;
53261;SDS011;39658;51.090;-1.786;2022-10-22T02:53:39;3.63;;;0.30;;
53261;SDS011;39658;51.090;-1.786;2022-10-22T02:56:06;0.13;;;0.10;;
53261;SDS011;39658;51.090;-1.786;2022-10-22T02:58:33;0.00;;;0.00;;
53261;SDS011;39658;51.090;-1.786;2022-10-22T03:01:00;0.15;;;0.15;;
53261;SDS011;39658;51.090;-1.786;2022-10-22T03:03:27;0.00;;;0.00;;
53261;SDS011;39658;51.090;-1.786;2022-10-22T03:05:55;1.35;;;0.10;;
53261;SDS011;39658;51.090;-1.786;2022-10-22T03:08:22;1.02;;;0.47;;
53261;SDS011;39658;51.090;-1.786;2022-10-22T03:10:49;0.32;;;0.10;;
53261;SDS011;39658;51.090;-1.786;2022-10-22T03:13:15;3.55;;;0.80;;
53261;SDS011;39658;51.090;-1.786;2022-10-22T03:15:42;0.77;;;0.63;;
53261;SDS011;39658;51.090;-1.786;2022-10-22T03:18:09;1.80;;;0.20;;
53261;SDS011;39658;51.090;-1.786;2022-10-22T03:20:36;0.35;;;0.20;;
53261;SDS011;39658;51.090;-1.786;2022-10-22T03:23:04;0.10;;;0.00;;
53261;SDS011;39658;51.090;-1.786;2022-10-22T03:25:31;0.00;;;0.00;;
53261;SDS011;39658;51.090;-1.786;2022-10-22T03:27:59;4.72;;;0.32;;
53261;SDS011;39658;51.090;-1.786;2022-10-22T03:30:29;0.65;;;0.22;;
53261;SDS011;39658;51.090;-1.786;2022-10-22T03:32:56;0.00;;;0.00;;
53261;SDS011;39658;51.090;-1.786;2022-10-22T03:35:23;0.30;;;0.10;;
53261;SDS011;39658;51.090;-1.786;2022-10-22T03:37:50;0.85;;;0.30;;
53261;SDS011;39658;51.090;-1.786;2022-10-22T03:40:19;0.15;;;0.08;;
53261;SDS011;39658;51.090;-1.786;2022-10-22T03:42:46;0.28;;;0.20;;
53261;SDS011;39658;51.090;-1.786;2022-10-22T03:45:13;1.08;;;0.55;;
53261;SDS011;39658;51.090;-1.786;2022-10-22T03:47:40;2.25;;;1.00;;
53261;SDS011;39658;51.090;-1.786;2022-10-22T03:50:07;0.00;;;0.00;;
53261;SDS011;39658;51.090;-1.786;2022-10-22T03:52:35;0.00;;;0.00;;
53261;SDS011;39658;51.090;-1.786;2022-10-22T03:55:04;1.77;;;1.35;;
53261;SDS011;39658;51.090;-1.786;2022-10-22T03:57:33;0.00;;;0.00;;
53261;SDS011;39658;51.090;-1.786;2022-10-22T04:00:00;1.08;;;0.45;;
53261;SDS011;39658;51.090;-1.786;2022-10-22T04:02:27;0.10;;;0.10;;
53261;SDS011;39658;51.090;-1.786;2022-10-22T04:04:54;0.00;;;0.00;;
53261;SDS011;39658;51.090;-1.786;2022-10-22T04:07:21;0.45;;;0.22;;
53261;SDS011;39658;51.090;-1.786;2022-10-22T04:09:48;0.90;;;0.47;;
53261;SDS011;39658;51.090;-1.786;2022-10-22T04:12:14;0.08;;;0.03;;
53261;SDS011;39658;51.090;-1.786;2022-10-22T04:14:43;0.00;;;0.00;;
53261;SDS011;39658;51.090;-1.786;2022-10-22T04:17:09;6.82;;;0.30;;
53261;SDS011;39658;51.090;-1.786;2022-10-22T04:19:36;10.32;;;0.47;;
53261;SDS011;39658;51.090;-1.786;2022-10-22T04:22:03;8.63;;;0.97;;
53261;SDS011;39658;51.090;-1.786;2022-10-22T04:24:30;0.00;;;0.00;;
53261;SDS011;39658;51.090;-1.786;2022-10-22T04:26:57;2.72;;;0.90;;
53261;SDS011;39658;51.090;-1.786;2022-10-22T04:29:24;0.80;;;0.38;;
53261;SDS011;39658;51.090;-1.786;2022-10-22T04:31:53;13.15;;;1.85;;
53261;SDS011;39658;51.090;-1.786;2022-10-22T04:34:20;1.45;;;0.73;;
53261;SDS011;39658;51.090;-1.786;2022-10-22T04:36:46;0.50;;;0.20;;
53261;SDS011;39658;51.090;-1.786;2022-10-22T04:39:13;0.22;;;0.22;;
53261;SDS011;39658;51.090;-1.786;2022-10-22T04:41:40;0.25;;;0.20;;
53261;SDS011;39658;51.090;-1.786;2022-10-22T04:44:07;0.60;;;0.43;;
53261;SDS011;39658;51.090;-1.786;2022-10-22T04:46:34;0.00;;;0.00;;
53261;SDS011;39658;51.090;-1.786;2022-10-22T04:49:03;0.00;;;0.00;;
53261;SDS011;39658;51.090;-1.786;2022-10-22T04:51:30;7.70;;;1.85;;
53261;SDS011;39658;51.090;-1.786;2022-10-22T04:53:57;1.73;;;1.63;;
53261;SDS011;39658;51.090;-1.786;2022-10-22T04:56:25;0.30;;;0.10;;
53261;SDS011;39658;51.090;-1.786;2022-10-22T04:58:54;0.32;;;0.15;;
53261;SDS011;39658;51.090;-1.786;2022-10-22T05:01:23;0.65;;;0.50;;
53261;SDS011;39658;51.090;-1.786;2022-10-22T05:03:52;0.00;;;0.00;;
53261;SDS011;39658;51.090;-1.786;2022-10-22T05:06:22;3.58;;;1.65;;
53261;SDS011;39658;51.090;-1.786;2022-10-22T05:08:51;0.35;;;0.25;;
53261;SDS011;39658;51.090;-1.786;2022-10-22T05:11:20;17.63;;;0.60;;
53261;SDS011;39658;51.090;-1.786;2022-10-22T05:13:48;11.60;;;2.10;;
53261;SDS011;39658;51.090;-1.786;2022-10-22T05:16:15;0.03;;;0.03;;
53261;SDS011;39658;51.090;-1.786;2022-10-22T05:18:42;5.82;;;0.55;;
53261;SDS011;39658;51.090;-1.786;2022-10-22T05:21:11;0.00;;;0.00;;
53261;SDS011;39658;51.090;-1.786;2022-10-22T05:23:40;0.00;;;0.00;;
53261;SDS011;39658;51.090;-1.786;2022-10-22T05:26:09;2.15;;;0.90;;
53261;SDS011;39658;51.090;-1.786;2022-10-22T05:28:37;3.83;;;0.98;;
53261;SDS011;39658;51.090;-1.786;2022-10-22T05:31:05;1.67;;;0.80;;
53261;SDS011;39658;51.090;-1.786;2022-10-22T05:33:33;0.00;;;0.00;;
53261;SDS011;39658;51.090;-1.786;2022-10-22T05:36:01;0.97;;;0.63;;
53261;SDS011;39658;51.090;-1.786;2022-10-22T05:38:30;0.70;;;0.22;;
53261;SDS011;39658;51.090;-1.786;2022-10-22T05:41:02;0.00;;;0.00;;
53261;SDS011;39658;51.090;-1.786;2022-10-22T05:43:30;10.95;;;1.67;;
53261;SDS011;39658;51.090;-1.786;2022-10-22T05:46:00;0.43;;;0.32;;
53261;SDS011;39658;51.090;-1.786;2022-10-22T05:48:28;0.85;;;0.40;;
53261;SDS011;39658;51.090;-1.786;2022-10-22T05:50:55;0.00;;;0.00;;
53261;SDS011;39658;51.090;-1.786;2022-10-22T05:53:22;0.60;;;0.30;;
53261;SDS011;39658;51.090;-1.786;2022-10-22T05:55:49;2.47;;;0.63;;
53261;SDS011;39658;51.090;-1.786;2022-10-22T05:58:17;0.28;;;0.10;;
53261;SDS011;39658;51.090;-1.786;2022-10-22T06:00:44;1.65;;;0.30;;
53261;SDS011;39658;51.090;-1.786;2022-10-22T06:03:10;0.65;;;0.40;;
53261;SDS011;39658;51.090;-1.786;2022-10-22T06:05:37;0.65;;;0.38;;
53261;SDS011;39658;51.090;-1.786;2022-10-22T06:08:04;0.00;;;0.00;;
53261;SDS011;39658;51.090;-1.786;2022-10-22T06:10:31;0.00;;;0.00;;
53261;SDS011;39658;51.090;-1.786;2022-10-22T06:12:58;0.00;;;0.00;;
53261;SDS011;39658;51.090;-1.786;2022-10-22T06:15:28;0.00;;;0.00;;
53261;SDS011;39658;51.090;-1.786;2022-10-22T06:17:55;0.55;;;0.13;;
53261;SDS011;39658;51.090;-1.786;2022-10-22T06:20:22;0.63;;;0.63;;
53261;SDS011;39658;51.090;-1.786;2022-10-22T06:22:49;3.53;;;0.85;;
53261;SDS011;39658;51.090;-1.786;2022-10-22T06:25:16;1.95;;;0.98;;
53261;SDS011;39658;51.090;-1.786;2022-10-22T06:27:43;0.00;;;0.00;;
53261;SDS011;39658;51.090;-1.786;2022-10-22T06:30:14;0.55;;;0.30;;
53261;SDS011;39658;51.090;-1.786;2022-10-22T06:32:43;0.55;;;0.25;;
53261;SDS011;39658;51.090;-1.786;2022-10-22T06:35:10;0.00;;;0.00;;
53261;SDS011;39658;51.090;-1.786;2022-10-22T06:37:36;0.00;;;0.00;;
53261;SDS011;39658;51.090;-1.786;2022-10-22T06:40:03;0.00;;;0.00;;
53261;SDS011;39658;51.090;-1.786;2022-10-22T06:42:31;0.00;;;0.00;;
53261;SDS011;39658;51.090;-1.786;2022-10-22T06:44:58;0.00;;;0.00;;
53261;SDS011;39658;51.090;-1.786;2022-10-22T06:47:24;0.30;;;0.10;;
53261;SDS011;39658;51.090;-1.786;2022-10-22T06:49:52;16.70;;;0.75;;
53261;SDS011;39658;51.090;-1.786;2022-10-22T06:52:19;0.25;;;0.10;;
53261;SDS011;39658;51.090;-1.786;2022-10-22T06:54:46;0.98;;;0.63;;
53261;SDS011;39658;51.090;-1.786;2022-10-22T06:57:13;0.43;;;0.20;;
53261;SDS011;39658;51.090;-1.786;2022-10-22T06:59:40;1.92;;;0.47;;
53261;SDS011;39658;51.090;-1.786;2022-10-22T07:02:07;0.00;;;0.00;;
53261;SDS011;39658;51.090;-1.786;2022-10-22T07:04:35;0.00;;;0.00;;
53261;SDS011;39658;51.090;-1.786;2022-10-22T07:07:03;0.00;;;0.00;;
53261;SDS011;39658;51.090;-1.786;2022-10-22T07:09:30;0.00;;;0.00;;
53261;SDS011;39658;51.090;-1.786;2022-10-22T07:11:56;0.28;;;0.17;;
53261;SDS011;39658;51.090;-1.786;2022-10-22T07:14:23;0.00;;;0.00;;
53261;SDS011;39658;51.090;-1.786;2022-10-22T07:16:50;0.00;;;0.00;;
53261;SDS011;39658;51.090;-1.786;2022-10-22T07:19:17;0.00;;;0.00;;
53261;SDS011;39658;51.090;-1.786;2022-10-22T07:21:44;0.00;;;0.00;;
53261;SDS011;39658;51.090;-1.786;2022-10-22T07:24:12;0.00;;;0.00;;
53261;SDS011;39658;51.090;-1.786;2022-10-22T07:26:39;1.98;;;0.47;;
53261;SDS011;39658;51.090;-1.786;2022-10-22T07:29:06;0.28;;;0.10;;
53261;SDS011;39658;51.090;-1.786;2022-10-22T07:31:34;0.10;;;0.03;;
53261;SDS011;39658;51.090;-1.786;2022-10-22T07:34:00;0.00;;;0.00;;
53261;SDS011;39658;51.090;-1.786;2022-10-22T07:36:27;0.30;;;0.20;;
53261;SDS011;39658;51.090;-1.786;2022-10-22T07:38:55;2.08;;;1.20;;
53261;SDS011;39658;51.090;-1.786;2022-10-22T07:41:24;0.00;;;0.00;;
53261;SDS011;39658;51.090;-1.786;2022-10-22T07:43:52;0.00;;;0.00;;
53261;SDS011;39658;51.090;-1.786;2022-10-22T07:46:19;0.13;;;0.13;;
53261;SDS011;39658;51.090;-1.786;2022-10-22T07:48:46;0.13;;;0.10;;
53261;SDS011;39658;51.090;-1.786;2022-10-22T07:51:13;0.00;;;0.00;;
53261;SDS011;39658;51.090;-1.786;2022-10-22T07:53:40;0.47;;;0.30;;
53261;SDS011;39658;51.090;-1.786;2022-10-22T07:56:08;1.17;;;0.73;;
53261;SDS011;39658;51.090;-1.786;2022-10-22T07:58:36;1.08;;;0.47;;
53261;SDS011;39658;51.090;-1.786;2022-10-22T08:01:03;1.08;;;0.65;;
53261;SDS011;39658;51.090;-1.786;2022-10-22T08:03:31;1.55;;;0.85;;
53261;SDS011;39658;51.090;-1.786;2022-10-22T08:05:58;4.57;;;1.25;;
53261;SDS011;39658;51.090;-1.786;2022-10-22T08:08:26;2.47;;;0.95;;
53261;SDS011;39658;51.090;-1.786;2022-10-22T08:10:54;3.20;;;1.05;;
53261;SDS011;39658;51.090;-1.786;2022-10-22T08:13:23;2.75;;;0.73;;
53261;SDS011;39658;51.090;-1.786;2022-10-22T08:15:51;0.22;;;0.20;;
53261;SDS011;39658;51.090;-1.786;2022-10-22T08:18:18;0.85;;;0.57;;
53261;SDS011;39658;51.090;-1.786;2022-10-22T08:20:45;2.75;;;0.70;;
53261;SDS011;39658;51.090;-1.786;2022-10-22T08:23:12;1.65;;;0.95;;
53261;SDS011;39658;51.090;-1.786;2022-10-22T08:25:38;5.50;;;1.35;;
53261;SDS011;39658;51.090;-1.786;2022-10-22T08:28:05;0.20;;;0.20;;
53261;SDS011;39658;51.090;-1.786;2022-10-22T08:30:32;0.22;;;0.22;;
53261;SDS011;39658;51.090;-1.786;2022-10-22T08:33:03;0.75;;;0.30;;
53261;SDS011;39658;51.090;-1.786;2022-10-22T08:35:30;2.65;;;1.38;;
53261;SDS011;39658;51.090;-1.786;2022-10-22T08:37:57;1.65;;;0.75;;
53261;SDS011;39658;51.090;-1.786;2022-10-22T08:40:25;3.67;;;0.82;;
53261;SDS011;39658;51.090;-1.786;2022-10-22T08:46:08;1.50;;;0.55;;
53261;SDS011;39658;51.090;-1.786;2022-10-22T08:48:48;2.72;;;0.85;;
53261;SDS011;39658;51.090;-1.786;2022-10-22T08:51:18;0.43;;;0.30;;
53261;SDS011;39658;51.090;-1.786;2022-10-22T08:53:53;1.85;;;0.90;;
53261;SDS011;39658;51.090;-1.786;2022-10-22T08:56:39;10.82;;;1.85;;
53261;SDS011;39658;51.090;-1.786;2022-10-22T08:59:10;0.50;;;0.30;;
53261;SDS011;39658;51.090;-1.786;2022-10-22T09:01:44;5.93;;;1.23;;
53261;SDS011;39658;51.090;-1.786;2022-10-22T09:04:16;2.83;;;1.20;;
53261;SDS011;39658;51.090;-1.786;2022-10-22T09:06:49;2.00;;;1.00;;
53261;SDS011;39658;51.090;-1.786;2022-10-22T09:09:18;2.15;;;1.25;;
53261;SDS011;39658;51.090;-1.786;2022-10-22T09:11:47;3.20;;;0.80;;
53261;SDS011;39658;51.090;-1.786;2022-10-22T09:14:16;3.10;;;1.38;;
53261;SDS011;39658;51.090;-1.786;2022-10-22T09:19:41;4.57;;;0.98;;
53261;SDS011;39658;51.090;-1.786;2022-10-22T09:22:22;3.15;;;1.25;;
53261;SDS011;39658;51.090;-1.786;2022-10-22T09:24:57;1.90;;;1.02;;
53261;SDS011;39658;51.090;-1.786;2022-10-22T09:27:27;6.28;;;1.58;;
53261;SDS011;39658;51.090;-1.786;2022-10-22T09:29:56;6.00;;;1.17;;
53261;SDS011;39658;51.090;-1.786;2022-10-22T09:32:24;5.03;;;1.25;;
53261;SDS011;39658;51.090;-1.786;2022-10-22T09:34:54;16.13;;;0.85;;
53261;SDS011;39658;51.090;-1.786;2022-10-22T09:37:24;2.83;;;1.27;;
53261;SDS011;39658;51.090;-1.786;2022-10-22T09:39:52;1.20;;;0.47;;
53261;SDS011;39658;51.090;-1.786;2022-10-22T09:42:21;4.63;;;1.75;;
53261;SDS011;39658;51.090;-1.786;2022-10-22T09:44:50;0.10;;;0.10;;
53261;SDS011;39658;51.090;-1.786;2022-10-22T09:47:27;6.75;;;1.95;;
53261;SDS011;39658;51.090;-1.786;2022-10-22T09:50:09;1.15;;;0.68;;
53261;SDS011;39658;51.090;-1.786;2022-10-22T09:52:45;3.40;;;1.45;;
53261;SDS011;39658;51.090;-1.786;2022-10-22T09:55:23;3.42;;;0.90;;
53261;SDS011;39658;51.090;-1.786;2022-10-22T09:57:54;12.88;;;1.38;;
53261;SDS011;39658;51.090;-1.786;2022-10-22T10:00:21;0.20;;;0.20;;
53261;SDS011;39658;51.090;-1.786;2022-10-22T10:02:52;1.77;;;0.88;;
53261;SDS011;39658;51.090;-1.786;2022-10-22T10:05:25;1.80;;;1.00;;
53261;SDS011;39658;51.090;-1.786;2022-10-22T10:07:54;1.20;;;0.67;;
53261;SDS011;39658;51.090;-1.786;2022-10-22T10:10:26;3.08;;;0.75;;
53261;SDS011;39658;51.090;-1.786;2022-10-22T10:13:01;4.75;;;1.58;;
53261;SDS011;39658;51.090;-1.786;2022-10-22T10:15:34;4.85;;;1.17;;
53261;SDS011;39658;51.090;-1.786;2022-10-22T10:18:11;4.75;;;1.90;;
53261;SDS011;39658;51.090;-1.786;2022-10-22T10:20:51;2.50;;;0.95;;
53261;SDS011;39658;51.090;-1.786;2022-10-22T10:23:26;5.03;;;1.65;;
53261;SDS011;39658;51.090;-1.786;2022-10-22T10:26:03;2.38;;;0.60;;
53261;SDS011;39658;51.090;-1.786;2022-10-22T10:28:38;2.50;;;1.10;;
53261;SDS011;39658;51.090;-1.786;2022-10-22T10:31:19;2.60;;;1.30;;
53261;SDS011;39658;51.090;-1.786;2022-10-22T10:33:59;1.08;;;0.68;;
53261;SDS011;39658;51.090;-1.786;2022-10-22T10:36:35;1.40;;;0.85;;
53261;SDS011;39658;51.090;-1.786;2022-10-22T10:39:09;1.30;;;0.52;;
53261;SDS011;39658;51.090;-1.786;2022-10-22T10:41:45;3.45;;;1.15;;
53261;SDS011;39658;51.090;-1.786;2022-10-22T10:44:21;2.20;;;1.05;;
53261;SDS011;39658;51.090;-1.786;2022-10-22T10:47:04;2.40;;;1.05;;
53261;SDS011;39658;51.090;-1.786;2022-10-22T10:49:42;0.10;;;0.10;;
53261;SDS011;39658;51.090;-1.786;2022-10-22T10:52:12;1.63;;;0.75;;
53261;SDS011;39658;51.090;-1.786;2022-10-22T10:54:49;1.83;;;0.98;;
53261;SDS011;39658;51.090;-1.786;2022-10-22T10:57:31;1.85;;;0.68;;
53261;SDS011;39658;51.090;-1.786;2022-10-22T11:00:06;1.83;;;1.10;;
53261;SDS011;39658;51.090;-1.786;2022-10-22T11:02:46;2.83;;;0.82;;
53261;SDS011;39658;51.090;-1.786;2022-10-22T11:05:37;2.80;;;0.70;;
53261;SDS011;39658;51.090;-1.786;2022-10-22T11:08:10;2.90;;;1.30;;
53261;SDS011;39658;51.090;-1.786;2022-10-22T11:10:42;2.30;;;0.98;;
53261;SDS011;39658;51.090;-1.786;2022-10-22T11:13:14;4.38;;;0.95;;
53261;SDS011;39658;51.090;-1.786;2022-10-22T11:15:47;1.30;;;0.70;;
53261;SDS011;39658;51.090;-1.786;2022-10-22T11:18:20;2.75;;;0.77;;
53261;SDS011;39658;51.090;-1.786;2022-10-22T11:21:01;2.42;;;1.52;;
53261;SDS011;39658;51.090;-1.786;2022-10-22T11:23:36;2.15;;;0.65;;
53261;SDS011;39658;51.090;-1.786;2022-10-22T11:26:10;3.50;;;1.08;;
53261;SDS011;39658;51.090;-1.786;2022-10-22T11:28:44;1.75;;;1.05;;
53261;SDS011;39658;51.090;-1.786;2022-10-22T11:31:15;3.75;;;1.17;;
53261;SDS011;39658;51.090;-1.786;2022-10-22T11:33:45;0.43;;;0.20;;
53261;SDS011;39658;51.090;-1.786;2022-10-22T11:36:17;2.53;;;1.15;;
53261;SDS011;39658;51.090;-1.786;2022-10-22T11:38:49;1.02;;;0.52;;
53261;SDS011;39658;51.090;-1.786;2022-10-22T11:41:17;1.45;;;1.00;;
53261;SDS011;39658;51.090;-1.786;2022-10-22T11:43:55;2.28;;;1.17;;
53261;SDS011;39658;51.090;-1.786;2022-10-22T11:46:39;2.28;;;0.70;;
53261;SDS011;39658;51.090;-1.786;2022-10-22T11:49:17;2.20;;;0.45;;
53261;SDS011;39658;51.090;-1.786;2022-10-22T11:51:49;0.55;;;0.25;;
53261;SDS011;39658;51.090;-1.786;2022-10-22T11:54:30;5.03;;;1.65;;
53261;SDS011;39658;51.090;-1.786;2022-10-22T11:57:19;4.10;;;0.52;;
53261;SDS011;39658;51.090;-1.786;2022-10-22T12:02:21;0.20;;;0.20;;
53261;SDS011;39658;51.090;-1.786;2022-10-22T12:05:00;0.45;;;0.13;;
53261;SDS011;39658;51.090;-1.786;2022-10-22T12:07:49;1.77;;;1.05;;
53261;SDS011;39658;51.090;-1.786;2022-10-22T12:10:20;1.42;;;0.57;;
53261;SDS011;39658;51.090;-1.786;2022-10-22T12:12:51;0.80;;;0.35;;
53261;SDS011;39658;51.090;-1.786;2022-10-22T12:15:23;1.98;;;0.88;;
53261;SDS011;39658;51.090;-1.786;2022-10-22T12:17:55;0.20;;;0.20;;
53261;SDS011;39658;51.090;-1.786;2022-10-22T12:20:26;0.55;;;0.50;;
53261;SDS011;39658;51.090;-1.786;2022-10-22T12:22:54;4.60;;;0.70;;
53261;SDS011;39658;51.090;-1.786;2022-10-22T12:25:24;1.77;;;0.57;;
53261;SDS011;39658;51.090;-1.786;2022-10-22T12:27:57;0.00;;;0.00;;
53261;SDS011;39658;51.090;-1.786;2022-10-22T12:30:26;7.47;;;1.90;;
53261;SDS011;39658;51.090;-1.786;2022-10-22T12:32:56;0.57;;;0.40;;
53261;SDS011;39658;51.090;-1.786;2022-10-22T12:35:25;2.72;;;1.92;;
53261;SDS011;39658;51.090;-1.786;2022-10-22T12:37:54;0.32;;;0.30;;
53261;SDS011;39658;51.090;-1.786;2022-10-22T12:40:24;8.75;;;2.03;;
53261;SDS011;39658;51.090;-1.786;2022-10-22T12:42:53;3.22;;;1.38;;
53261;SDS011;39658;51.090;-1.786;2022-10-22T12:45:22;17.98;;;3.75;;
53261;SDS011;39658;51.090;-1.786;2022-10-22T12:47:54;18.45;;;3.85;;
53261;SDS011;39658;51.090;-1.786;2022-10-22T12:50:24;16.13;;;4.32;;
53261;SDS011;39658;51.090;-1.786;2022-10-22T12:52:58;17.50;;;3.75;;
53261;SDS011;39658;51.090;-1.786;2022-10-22T12:55:26;16.75;;;3.53;;
53261;SDS011;39658;51.090;-1.786;2022-10-22T12:57:56;19.77;;;3.80;;
53261;SDS011;39658;51.090;-1.786;2022-10-22T13:00:24;21.38;;;4.50;;
53261;SDS011;39658;51.090;-1.786;2022-10-22T13:02:53;19.17;;;4.05;;
53261;SDS011;39658;51.090;-1.786;2022-10-22T13:05:24;15.85;;;3.95;;
53261;SDS011;39658;51.090;-1.786;2022-10-22T13:07:53;18.83;;;3.67;;
53261;SDS011;39658;51.090;-1.786;2022-10-22T13:10:30;18.38;;;5.45;;
53261;SDS011;39658;51.090;-1.786;2022-10-22T13:12:57;21.55;;;3.80;;
53261;SDS011;39658;51.090;-1.786;2022-10-22T13:15:35;26.70;;;4.82;;
53261;SDS011;39658;51.090;-1.786;2022-10-22T13:18:05;17.80;;;4.60;;
53261;SDS011;39658;51.090;-1.786;2022-10-22T13:20:49;17.90;;;3.10;;
53261;SDS011;39658;51.090;-1.786;2022-10-22T13:23:17;18.20;;;3.33;;
53261;SDS011;39658;51.090;-1.786;2022-10-22T13:25:55;17.40;;;3.25;;
53261;SDS011;39658;51.090;-1.786;2022-10-22T13:28:24;17.75;;;3.50;;
53261;SDS011;39658;51.090;-1.786;2022-10-22T13:30:53;19.38;;;4.07;;
53261;SDS011;39658;51.090;-1.786;2022-10-22T13:33:22;19.38;;;4.20;;
53261;SDS011;39658;51.090;-1.786;2022-10-22T13:35:51;20.58;;;3.95;;
53261;SDS011;39658;51.090;-1.786;2022-10-22T13:38:20;26.58;;;5.18;;
53261;SDS011;39658;51.090;-1.786;2022-10-22T13:40:48;21.38;;;4.63;;
53261;SDS011;39658;51.090;-1.786;2022-10-22T13:43:17;23.27;;;4.15;;
53261;SDS011;39658;51.090;-1.786;2022-10-22T13:45:44;26.17;;;5.35;;
53261;SDS011;39658;51.090;-1.786;2022-10-22T13:48:13;27.90;;;5.40;;
53261;SDS011;39658;51.090;-1.786;2022-10-22T13:50:43;19.65;;;3.95;;
53261;SDS011;39658;51.090;-1.786;2022-10-22T13:53:12;26.77;;;4.95;;
53261;SDS011;39658;51.090;-1.786;2022-10-22T13:55:42;20.40;;;4.38;;
53261;SDS011;39658;51.090;-1.786;2022-10-22T13:58:10;26.55;;;5.20;;
53261;SDS011;39658;51.090;-1.786;2022-10-22T14:00:40;30.80;;;5.05;;
53261;SDS011;39658;51.090;-1.786;2022-10-22T14:03:09;29.75;;;5.20;;
53261;SDS011;39658;51.090;-1.786;2022-10-22T14:05:39;26.10;;;4.87;;
53261;SDS011;39658;51.090;-1.786;2022-10-22T14:08:07;28.55;;;5.32;;
53261;SDS011;39658;51.090;-1.786;2022-10-22T14:10:36;23.57;;;4.03;;
53261;SDS011;39658;51.090;-1.786;2022-10-22T14:13:04;21.90;;;4.10;;
53261;SDS011;39658;51.090;-1.786;2022-10-22T14:15:31;24.52;;;4.45;;
53261;SDS011;39658;51.090;-1.786;2022-10-22T14:18:01;26.38;;;4.43;;
53261;SDS011;39658;51.090;-1.786;2022-10-22T14:20:32;21.70;;;4.20;;
53261;SDS011;39658;51.090;-1.786;2022-10-22T14:23:03;23.50;;;4.88;;
53261;SDS011;39658;51.090;-1.786;2022-10-22T14:25:46;29.30;;;4.60;;
53261;SDS011;39658;51.090;-1.786;2022-10-22T14:28:15;26.02;;;4.47;;
53261;SDS011;39658;51.090;-1.786;2022-10-22T14:30:42;30.00;;;4.25;;
53261;SDS011;39658;51.090;-1.786;2022-10-22T14:33:12;21.85;;;4.38;;
53261;SDS011;39658;51.090;-1.786;2022-10-22T14:35:41;23.75;;;4.68;;
53261;SDS011;39658;51.090;-1.786;2022-10-22T14:38:08;21.02;;;5.25;;
53261;SDS011;39658;51.090;-1.786;2022-10-22T14:40:35;26.17;;;4.60;;
53261;SDS011;39658;51.090;-1.786;2022-10-22T14:43:03;19.05;;;4.25;;
53261;SDS011;39658;51.090;-1.786;2022-10-22T14:45:30;24.70;;;4.88;;
53261;SDS011;39658;51.090;-1.786;2022-10-22T14:47:57;24.30;;;4.15;;
53261;SDS011;39658;51.090;-1.786;2022-10-22T14:50:26;23.23;;;4.65;;
53261;SDS011;39658;51.090;-1.786;2022-10-22T14:52:53;28.80;;;4.72;;
53261;SDS011;39658;51.090;-1.786;2022-10-22T14:55:21;24.35;;;4.78;;
53261;SDS011;39658;51.090;-1.786;2022-10-22T14:57:48;25.00;;;4.45;;
53261;SDS011;39658;51.090;-1.786;2022-10-22T15:00:15;22.30;;;4.50;;
53261;SDS011;39658;51.090;-1.786;2022-10-22T15:02:44;24.58;;;4.50;;